sensor_id;sensor_type;location;lat;lon;timestamp;P1;durP1;ratioP1;P2;durP2;ratioP2
59207;SDS011;44977;53.132;6.408;2022-12-18T00:04:57;100.32;;;54.45;;
59207;SDS011;44977;53.132;6.408;2022-12-18T00:09:58;102.25;;;55.08;;
59207;SDS011;44977;53.132;6.408;2022-12-18T00:14:59;97.28;;;53.35;;
59207;SDS011;44977;53.132;6.408;2022-12-18T00:20:03;99.13;;;53.95;;
59207;SDS011;44977;53.132;6.408;2022-12-18T00:25:04;24.83;;;10.80;;
59207;SDS011;44977;53.132;6.408;2022-12-18T00:30:05;39.38;;;14.57;;
59207;SDS011;44977;53.132;6.408;2022-12-18T00:35:06;92.30;;;50.40;;
59207;SDS011;44977;53.132;6.408;2022-12-18T00:40:07;95.97;;;51.60;;
59207;SDS011;44977;53.132;6.408;2022-12-18T00:45:09;36.05;;;13.98;;
59207;SDS011;44977;53.132;6.408;2022-12-18T00:50:10;98.15;;;52.63;;
59207;SDS011;44977;53.132;6.408;2022-12-18T00:55:10;95.03;;;52.00;;
59207;SDS011;44977;53.132;6.408;2022-12-18T01:00:13;96.68;;;51.42;;
59207;SDS011;44977;53.132;6.408;2022-12-18T01:05:14;104.25;;;54.38;;
59207;SDS011;44977;53.132;6.408;2022-12-18T01:10:15;101.20;;;53.30;;
59207;SDS011;44977;53.132;6.408;2022-12-18T01:15:16;97.95;;;51.88;;
59207;SDS011;44977;53.132;6.408;2022-12-18T01:20:17;29.73;;;11.73;;
59207;SDS011;44977;53.132;6.408;2022-12-18T01:25:18;93.43;;;51.45;;
59207;SDS011;44977;53.132;6.408;2022-12-18T01:30:19;88.28;;;48.63;;
59207;SDS011;44977;53.132;6.408;2022-12-18T01:35:20;88.10;;;48.20;;
59207;SDS011;44977;53.132;6.408;2022-12-18T01:40:21;87.20;;;48.05;;
59207;SDS011;44977;53.132;6.408;2022-12-18T01:45:24;76.32;;;44.85;;
59207;SDS011;44977;53.132;6.408;2022-12-18T01:55:35;76.18;;;45.88;;
59207;SDS011;44977;53.132;6.408;2022-12-18T02:00:42;81.40;;;46.45;;
59207;SDS011;44977;53.132;6.408;2022-12-18T02:27:10;84.88;;;47.65;;
59207;SDS011;44977;53.132;6.408;2022-12-18T02:32:14;89.97;;;50.58;;
59207;SDS011;44977;53.132;6.408;2022-12-18T02:37:18;85.00;;;47.75;;
59207;SDS011;44977;53.132;6.408;2022-12-18T02:42:19;83.57;;;47.28;;
59207;SDS011;44977;53.132;6.408;2022-12-18T02:47:21;35.80;;;14.75;;
59207;SDS011;44977;53.132;6.408;2022-12-18T02:57:49;78.35;;;46.33;;
59207;SDS011;44977;53.132;6.408;2022-12-18T03:02:59;35.17;;;14.15;;
59207;SDS011;44977;53.132;6.408;2022-12-18T03:08:07;82.70;;;49.53;;
59207;SDS011;44977;53.132;6.408;2022-12-18T03:13:23;83.65;;;51.58;;
59207;SDS011;44977;53.132;6.408;2022-12-18T03:18:34;85.65;;;50.35;;
59207;SDS011;44977;53.132;6.408;2022-12-18T03:23:42;84.75;;;48.95;;
59207;SDS011;44977;53.132;6.408;2022-12-18T03:28:54;87.03;;;50.45;;
59207;SDS011;44977;53.132;6.408;2022-12-18T03:34:01;84.35;;;49.67;;
59207;SDS011;44977;53.132;6.408;2022-12-18T03:39:11;81.75;;;48.92;;
59207;SDS011;44977;53.132;6.408;2022-12-18T03:44:13;34.40;;;13.40;;
59207;SDS011;44977;53.132;6.408;2022-12-18T03:54:41;76.43;;;45.83;;
59207;SDS011;44977;53.132;6.408;2022-12-18T03:59:43;70.10;;;45.47;;
59207;SDS011;44977;53.132;6.408;2022-12-18T04:04:46;26.83;;;11.63;;
59207;SDS011;44977;53.132;6.408;2022-12-18T04:09:50;72.10;;;44.53;;
59207;SDS011;44977;53.132;6.408;2022-12-18T04:14:56;69.65;;;42.45;;
59207;SDS011;44977;53.132;6.408;2022-12-18T04:19:56;69.63;;;42.80;;
59207;SDS011;44977;53.132;6.408;2022-12-18T04:24:57;44.50;;;13.98;;
59207;SDS011;44977;53.132;6.408;2022-12-18T04:29:58;37.22;;;14.30;;
59207;SDS011;44977;53.132;6.408;2022-12-18T04:34:58;34.85;;;13.70;;
59207;SDS011;44977;53.132;6.408;2022-12-18T04:39:59;67.05;;;41.67;;
59207;SDS011;44977;53.132;6.408;2022-12-18T04:45:00;73.03;;;42.50;;
59207;SDS011;44977;53.132;6.408;2022-12-18T04:50:00;64.40;;;40.42;;
59207;SDS011;44977;53.132;6.408;2022-12-18T04:55:01;69.70;;;42.33;;
59207;SDS011;44977;53.132;6.408;2022-12-18T05:00:02;39.60;;;14.57;;
59207;SDS011;44977;53.132;6.408;2022-12-18T05:05:03;64.30;;;40.63;;
59207;SDS011;44977;53.132;6.408;2022-12-18T05:10:05;67.25;;;40.58;;
59207;SDS011;44977;53.132;6.408;2022-12-18T05:15:06;59.28;;;39.17;;
59207;SDS011;44977;53.132;6.408;2022-12-18T05:20:07;64.00;;;40.10;;
59207;SDS011;44977;53.132;6.408;2022-12-18T05:25:08;59.58;;;38.47;;
59207;SDS011;44977;53.132;6.408;2022-12-18T05:30:09;35.10;;;11.77;;
59207;SDS011;44977;53.132;6.408;2022-12-18T05:35:10;61.83;;;38.65;;
59207;SDS011;44977;53.132;6.408;2022-12-18T05:40:11;25.95;;;10.55;;
59207;SDS011;44977;53.132;6.408;2022-12-18T05:45:12;60.42;;;38.85;;
59207;SDS011;44977;53.132;6.408;2022-12-18T05:50:13;58.75;;;38.30;;
59207;SDS011;44977;53.132;6.408;2022-12-18T05:55:14;61.42;;;38.92;;
59207;SDS011;44977;53.132;6.408;2022-12-18T06:00:15;59.25;;;39.00;;
59207;SDS011;44977;53.132;6.408;2022-12-18T06:05:16;29.50;;;11.75;;
59207;SDS011;44977;53.132;6.408;2022-12-18T06:10:16;59.08;;;37.80;;
59207;SDS011;44977;53.132;6.408;2022-12-18T06:15:17;32.63;;;11.65;;
59207;SDS011;44977;53.132;6.408;2022-12-18T06:20:18;62.67;;;38.53;;
59207;SDS011;44977;53.132;6.408;2022-12-18T06:25:19;57.00;;;36.40;;
59207;SDS011;44977;53.132;6.408;2022-12-18T06:30:19;34.22;;;11.98;;
59207;SDS011;44977;53.132;6.408;2022-12-18T06:35:20;54.67;;;35.45;;
59207;SDS011;44977;53.132;6.408;2022-12-18T06:40:21;54.22;;;35.67;;
59207;SDS011;44977;53.132;6.408;2022-12-18T06:45:22;54.13;;;36.38;;
59207;SDS011;44977;53.132;6.408;2022-12-18T06:50:22;51.75;;;34.47;;
59207;SDS011;44977;53.132;6.408;2022-12-18T06:55:23;47.78;;;33.10;;
59207;SDS011;44977;53.132;6.408;2022-12-18T07:00:24;47.85;;;32.28;;
59207;SDS011;44977;53.132;6.408;2022-12-18T07:05:24;21.48;;;9.10;;
59207;SDS011;44977;53.132;6.408;2022-12-18T07:10:25;48.97;;;31.63;;
59207;SDS011;44977;53.132;6.408;2022-12-18T07:15:26;50.10;;;31.52;;
59207;SDS011;44977;53.132;6.408;2022-12-18T07:20:27;44.08;;;30.65;;
59207;SDS011;44977;53.132;6.408;2022-12-18T07:25:27;25.95;;;11.25;;
59207;SDS011;44977;53.132;6.408;2022-12-18T07:30:28;45.38;;;30.98;;
59207;SDS011;44977;53.132;6.408;2022-12-18T07:35:29;24.48;;;10.63;;
59207;SDS011;44977;53.132;6.408;2022-12-18T07:40:29;39.47;;;28.50;;
59207;SDS011;44977;53.132;6.408;2022-12-18T07:45:30;38.97;;;28.77;;
59207;SDS011;44977;53.132;6.408;2022-12-18T07:50:31;41.50;;;28.42;;
59207;SDS011;44977;53.132;6.408;2022-12-18T07:55:32;40.88;;;29.90;;
59207;SDS011;44977;53.132;6.408;2022-12-18T08:00:33;41.60;;;28.77;;
59207;SDS011;44977;53.132;6.408;2022-12-18T08:05:34;23.58;;;8.75;;
59207;SDS011;44977;53.132;6.408;2022-12-18T08:10:35;38.22;;;26.80;;
59207;SDS011;44977;53.132;6.408;2022-12-18T08:15:35;38.97;;;28.27;;
59207;SDS011;44977;53.132;6.408;2022-12-18T08:20:36;35.30;;;26.67;;
59207;SDS011;44977;53.132;6.408;2022-12-18T08:25:37;36.85;;;26.55;;
59207;SDS011;44977;53.132;6.408;2022-12-18T08:30:37;15.27;;;7.28;;
59207;SDS011;44977;53.132;6.408;2022-12-18T08:35:38;35.92;;;27.17;;
59207;SDS011;44977;53.132;6.408;2022-12-18T08:40:39;36.95;;;26.92;;
59207;SDS011;44977;53.132;6.408;2022-12-18T08:45:39;23.02;;;9.57;;
59207;SDS011;44977;53.132;6.408;2022-12-18T08:50:40;35.58;;;26.50;;
59207;SDS011;44977;53.132;6.408;2022-12-18T08:55:41;19.90;;;9.30;;
59207;SDS011;44977;53.132;6.408;2022-12-18T09:00:41;31.52;;;24.88;;
59207;SDS011;44977;53.132;6.408;2022-12-18T09:05:42;16.65;;;8.43;;
59207;SDS011;44977;53.132;6.408;2022-12-18T09:10:45;31.48;;;24.50;;
59207;SDS011;44977;53.132;6.408;2022-12-18T09:15:49;30.75;;;23.77;;
59207;SDS011;44977;53.132;6.408;2022-12-18T09:20:51;31.17;;;23.60;;
59207;SDS011;44977;53.132;6.408;2022-12-18T09:25:58;17.65;;;7.72;;
59207;SDS011;44977;53.132;6.408;2022-12-18T09:31:03;17.60;;;7.25;;
59207;SDS011;44977;53.132;6.408;2022-12-18T09:36:06;27.25;;;22.25;;
59207;SDS011;44977;53.132;6.408;2022-12-18T09:46:52;21.58;;;7.68;;
59207;SDS011;44977;53.132;6.408;2022-12-18T09:52:21;29.10;;;22.48;;
59207;SDS011;44977;53.132;6.408;2022-12-18T09:57:29;26.70;;;20.95;;
59207;SDS011;44977;53.132;6.408;2022-12-18T10:02:33;23.92;;;19.58;;
59207;SDS011;44977;53.132;6.408;2022-12-18T10:07:40;26.25;;;21.08;;
59207;SDS011;44977;53.132;6.408;2022-12-18T10:17:58;26.80;;;21.47;;
59207;SDS011;44977;53.132;6.408;2022-12-18T10:28:38;26.85;;;20.70;;
59207;SDS011;44977;53.132;6.408;2022-12-18T10:33:40;25.15;;;20.42;;
59207;SDS011;44977;53.132;6.408;2022-12-18T10:38:41;15.00;;;7.38;;
59207;SDS011;44977;53.132;6.408;2022-12-18T10:43:42;22.55;;;18.23;;
59207;SDS011;44977;53.132;6.408;2022-12-18T10:48:55;24.35;;;18.67;;
59207;SDS011;44977;53.132;6.408;2022-12-18T10:53:59;22.98;;;17.23;;
59207;SDS011;44977;53.132;6.408;2022-12-18T10:59:07;20.95;;;16.63;;
59207;SDS011;44977;53.132;6.408;2022-12-18T11:04:09;20.00;;;15.00;;
59207;SDS011;44977;53.132;6.408;2022-12-18T11:09:19;14.33;;;5.87;;
59207;SDS011;44977;53.132;6.408;2022-12-18T11:14:25;17.05;;;13.30;;
59207;SDS011;44977;53.132;6.408;2022-12-18T11:19:33;15.85;;;5.38;;
59207;SDS011;44977;53.132;6.408;2022-12-18T11:24:38;21.05;;;16.20;;
59207;SDS011;44977;53.132;6.408;2022-12-18T11:29:39;18.55;;;14.60;;
59207;SDS011;44977;53.132;6.408;2022-12-18T11:34:41;18.88;;;14.30;;
59207;SDS011;44977;53.132;6.408;2022-12-18T11:39:59;18.23;;;14.15;;
59207;SDS011;44977;53.132;6.408;2022-12-18T11:50:17;17.38;;;13.63;;
59207;SDS011;44977;53.132;6.408;2022-12-18T12:00:53;16.85;;;12.48;;
59207;SDS011;44977;53.132;6.408;2022-12-18T12:21:59;15.48;;;11.48;;
59207;SDS011;44977;53.132;6.408;2022-12-18T12:32:39;14.75;;;10.10;;
59207;SDS011;44977;53.132;6.408;2022-12-18T12:38:05;15.52;;;10.65;;
59207;SDS011;44977;53.132;6.408;2022-12-18T12:48:55;13.93;;;10.05;;
59207;SDS011;44977;53.132;6.408;2022-12-18T12:53:58;14.52;;;11.18;;
59207;SDS011;44977;53.132;6.408;2022-12-18T12:59:05;13.68;;;10.48;;
59207;SDS011;44977;53.132;6.408;2022-12-18T13:04:27;13.43;;;9.95;;
59207;SDS011;44977;53.132;6.408;2022-12-18T13:10:10;14.65;;;10.20;;
59207;SDS011;44977;53.132;6.408;2022-12-18T13:15:20;15.35;;;10.25;;
59207;SDS011;44977;53.132;6.408;2022-12-18T13:20:24;12.30;;;9.00;;
59207;SDS011;44977;53.132;6.408;2022-12-18T13:25:42;11.68;;;3.67;;
59207;SDS011;44977;53.132;6.408;2022-12-18T13:45:58;13.27;;;8.63;;
59207;SDS011;44977;53.132;6.408;2022-12-18T13:51:05;11.32;;;7.90;;
59207;SDS011;44977;53.132;6.408;2022-12-18T13:56:08;12.55;;;8.43;;
59207;SDS011;44977;53.132;6.408;2022-12-18T14:01:22;13.80;;;8.63;;
59207;SDS011;44977;53.132;6.408;2022-12-18T14:06:23;12.52;;;8.48;;
59207;SDS011;44977;53.132;6.408;2022-12-18T14:11:24;13.07;;;9.43;;
59207;SDS011;44977;53.132;6.408;2022-12-18T14:16:25;13.27;;;8.70;;
59207;SDS011;44977;53.132;6.408;2022-12-18T14:21:28;12.40;;;8.55;;
59207;SDS011;44977;53.132;6.408;2022-12-18T14:26:30;14.35;;;8.57;;
59207;SDS011;44977;53.132;6.408;2022-12-18T14:31:33;12.55;;;9.20;;
59207;SDS011;44977;53.132;6.408;2022-12-18T14:36:33;13.15;;;9.05;;
59207;SDS011;44977;53.132;6.408;2022-12-18T14:41:34;12.65;;;8.70;;
59207;SDS011;44977;53.132;6.408;2022-12-18T14:46:35;12.27;;;9.15;;
59207;SDS011;44977;53.132;6.408;2022-12-18T14:51:38;12.77;;;8.95;;
59207;SDS011;44977;53.132;6.408;2022-12-18T14:57:22;10.95;;;8.00;;
59207;SDS011;44977;53.132;6.408;2022-12-18T15:02:25;15.52;;;10.65;;
59207;SDS011;44977;53.132;6.408;2022-12-18T15:07:38;14.10;;;9.63;;
59207;SDS011;44977;53.132;6.408;2022-12-18T15:17:57;12.68;;;8.32;;
59207;SDS011;44977;53.132;6.408;2022-12-18T15:22:58;12.65;;;8.70;;
59207;SDS011;44977;53.132;6.408;2022-12-18T15:27:59;12.23;;;9.00;;
59207;SDS011;44977;53.132;6.408;2022-12-18T15:38:26;15.73;;;11.43;;
59207;SDS011;44977;53.132;6.408;2022-12-18T15:43:27;18.15;;;12.80;;
59207;SDS011;44977;53.132;6.408;2022-12-18T15:48:34;14.43;;;11.02;;
59207;SDS011;44977;53.132;6.408;2022-12-18T15:53:39;15.02;;;11.18;;
59207;SDS011;44977;53.132;6.408;2022-12-18T15:58:40;15.25;;;11.50;;
59207;SDS011;44977;53.132;6.408;2022-12-18T16:03:40;15.57;;;11.25;;
59207;SDS011;44977;53.132;6.408;2022-12-18T16:08:41;15.10;;;11.35;;
59207;SDS011;44977;53.132;6.408;2022-12-18T16:13:42;15.68;;;11.50;;
59207;SDS011;44977;53.132;6.408;2022-12-18T16:18:42;15.23;;;12.20;;
59207;SDS011;44977;53.132;6.408;2022-12-18T16:23:43;15.32;;;11.85;;
59207;SDS011;44977;53.132;6.408;2022-12-18T16:28:43;15.10;;;12.23;;
59207;SDS011;44977;53.132;6.408;2022-12-18T16:33:44;16.05;;;12.10;;
59207;SDS011;44977;53.132;6.408;2022-12-18T16:38:45;14.68;;;11.55;;
59207;SDS011;44977;53.132;6.408;2022-12-18T16:43:45;17.05;;;12.90;;
59207;SDS011;44977;53.132;6.408;2022-12-18T16:48:46;16.30;;;12.13;;
59207;SDS011;44977;53.132;6.408;2022-12-18T16:53:47;15.43;;;12.30;;
59207;SDS011;44977;53.132;6.408;2022-12-18T16:58:51;15.20;;;12.20;;
59207;SDS011;44977;53.132;6.408;2022-12-18T17:03:58;15.80;;;12.05;;
59207;SDS011;44977;53.132;6.408;2022-12-18T17:09:01;17.20;;;12.85;;
59207;SDS011;44977;53.132;6.408;2022-12-18T17:14:06;15.35;;;12.25;;
59207;SDS011;44977;53.132;6.408;2022-12-18T17:19:09;15.55;;;11.98;;
59207;SDS011;44977;53.132;6.408;2022-12-18T17:24:10;15.73;;;11.43;;
59207;SDS011;44977;53.132;6.408;2022-12-18T17:29:15;17.48;;;12.27;;
59207;SDS011;44977;53.132;6.408;2022-12-18T17:34:17;14.25;;;11.02;;
59207;SDS011;44977;53.132;6.408;2022-12-18T17:39:19;16.08;;;11.10;;
59207;SDS011;44977;53.132;6.408;2022-12-18T17:44:20;15.68;;;11.55;;
59207;SDS011;44977;53.132;6.408;2022-12-18T17:49:21;16.40;;;12.32;;
59207;SDS011;44977;53.132;6.408;2022-12-18T17:54:21;17.65;;;12.63;;
59207;SDS011;44977;53.132;6.408;2022-12-18T17:59:22;14.95;;;11.52;;
59207;SDS011;44977;53.132;6.408;2022-12-18T18:04:23;15.98;;;12.23;;
59207;SDS011;44977;53.132;6.408;2022-12-18T18:09:23;15.13;;;11.45;;
59207;SDS011;44977;53.132;6.408;2022-12-18T18:14:24;14.00;;;11.00;;
59207;SDS011;44977;53.132;6.408;2022-12-18T18:19:26;14.70;;;11.45;;
59207;SDS011;44977;53.132;6.408;2022-12-18T18:24:27;13.95;;;11.38;;
59207;SDS011;44977;53.132;6.408;2022-12-18T18:29:28;17.15;;;11.88;;
59207;SDS011;44977;53.132;6.408;2022-12-18T18:34:32;13.63;;;10.65;;
59207;SDS011;44977;53.132;6.408;2022-12-18T18:39:33;15.07;;;11.07;;
59207;SDS011;44977;53.132;6.408;2022-12-18T18:44:33;15.63;;;11.52;;
59207;SDS011;44977;53.132;6.408;2022-12-18T18:49:34;11.93;;;5.47;;
59207;SDS011;44977;53.132;6.408;2022-12-18T18:54:35;15.82;;;12.05;;
59207;SDS011;44977;53.132;6.408;2022-12-18T18:59:35;15.90;;;11.48;;
59207;SDS011;44977;53.132;6.408;2022-12-18T19:04:36;15.50;;;11.75;;
59207;SDS011;44977;53.132;6.408;2022-12-18T19:09:37;15.30;;;11.75;;
59207;SDS011;44977;53.132;6.408;2022-12-18T19:14:38;13.77;;;5.20;;
59207;SDS011;44977;53.132;6.408;2022-12-18T19:19:38;17.00;;;11.98;;
59207;SDS011;44977;53.132;6.408;2022-12-18T19:24:39;15.95;;;12.50;;
59207;SDS011;44977;53.132;6.408;2022-12-18T19:29:40;15.07;;;11.73;;
59207;SDS011;44977;53.132;6.408;2022-12-18T19:34:41;17.48;;;13.32;;
59207;SDS011;44977;53.132;6.408;2022-12-18T19:39:42;16.50;;;12.93;;
59207;SDS011;44977;53.132;6.408;2022-12-18T19:44:42;17.58;;;13.30;;
59207;SDS011;44977;53.132;6.408;2022-12-18T19:49:46;17.95;;;13.93;;
59207;SDS011;44977;53.132;6.408;2022-12-18T19:54:46;18.15;;;14.50;;
59207;SDS011;44977;53.132;6.408;2022-12-18T19:59:47;17.60;;;14.25;;
59207;SDS011;44977;53.132;6.408;2022-12-18T20:04:48;18.38;;;15.07;;
59207;SDS011;44977;53.132;6.408;2022-12-18T20:09:48;17.20;;;14.30;;
59207;SDS011;44977;53.132;6.408;2022-12-18T20:14:49;19.83;;;15.27;;
59207;SDS011;44977;53.132;6.408;2022-12-18T20:19:50;19.95;;;15.30;;
59207;SDS011;44977;53.132;6.408;2022-12-18T20:24:51;19.52;;;15.68;;
59207;SDS011;44977;53.132;6.408;2022-12-18T20:29:52;19.50;;;16.23;;
59207;SDS011;44977;53.132;6.408;2022-12-18T20:34:52;20.20;;;16.52;;
59207;SDS011;44977;53.132;6.408;2022-12-18T20:39:53;20.30;;;16.58;;
59207;SDS011;44977;53.132;6.408;2022-12-18T20:44:56;22.13;;;17.58;;
59207;SDS011;44977;53.132;6.408;2022-12-18T20:49:57;20.95;;;17.10;;
59207;SDS011;44977;53.132;6.408;2022-12-18T20:55:00;22.50;;;17.60;;
59207;SDS011;44977;53.132;6.408;2022-12-18T21:00:00;23.48;;;17.73;;
59207;SDS011;44977;53.132;6.408;2022-12-18T21:05:01;24.63;;;18.58;;
59207;SDS011;44977;53.132;6.408;2022-12-18T21:10:02;25.10;;;18.70;;
59207;SDS011;44977;53.132;6.408;2022-12-18T21:15:05;22.92;;;19.75;;
59207;SDS011;44977;53.132;6.408;2022-12-18T21:20:08;23.05;;;19.42;;
59207;SDS011;44977;53.132;6.408;2022-12-18T21:25:09;26.45;;;20.35;;
59207;SDS011;44977;53.132;6.408;2022-12-18T21:30:09;24.35;;;20.30;;
59207;SDS011;44977;53.132;6.408;2022-12-18T21:35:10;23.67;;;20.27;;
59207;SDS011;44977;53.132;6.408;2022-12-18T21:40:11;25.17;;;20.02;;
59207;SDS011;44977;53.132;6.408;2022-12-18T21:45:12;25.10;;;20.33;;
59207;SDS011;44977;53.132;6.408;2022-12-18T21:50:13;25.83;;;21.05;;
59207;SDS011;44977;53.132;6.408;2022-12-18T21:55:14;25.13;;;20.63;;
59207;SDS011;44977;53.132;6.408;2022-12-18T22:00:14;28.77;;;22.52;;
59207;SDS011;44977;53.132;6.408;2022-12-18T22:05:16;28.33;;;22.33;;
59207;SDS011;44977;53.132;6.408;2022-12-18T22:10:17;28.70;;;22.35;;
59207;SDS011;44977;53.132;6.408;2022-12-18T22:15:17;28.67;;;23.05;;
59207;SDS011;44977;53.132;6.408;2022-12-18T22:20:18;29.83;;;23.77;;
59207;SDS011;44977;53.132;6.408;2022-12-18T22:25:19;27.55;;;23.48;;
59207;SDS011;44977;53.132;6.408;2022-12-18T22:30:20;28.23;;;24.10;;
59207;SDS011;44977;53.132;6.408;2022-12-18T22:35:20;31.25;;;25.85;;
59207;SDS011;44977;53.132;6.408;2022-12-18T22:40:22;31.55;;;25.35;;
59207;SDS011;44977;53.132;6.408;2022-12-18T22:45:24;31.85;;;25.20;;
59207;SDS011;44977;53.132;6.408;2022-12-18T22:50:25;36.08;;;27.45;;
59207;SDS011;44977;53.132;6.408;2022-12-18T22:55:26;33.15;;;27.42;;
59207;SDS011;44977;53.132;6.408;2022-12-18T23:00:27;34.33;;;27.45;;
59207;SDS011;44977;53.132;6.408;2022-12-18T23:05:28;34.47;;;28.50;;
59207;SDS011;44977;53.132;6.408;2022-12-18T23:10:29;33.88;;;27.77;;
59207;SDS011;44977;53.132;6.408;2022-12-18T23:15:30;36.95;;;29.70;;
59207;SDS011;44977;53.132;6.408;2022-12-18T23:20:31;34.83;;;28.23;;
59207;SDS011;44977;53.132;6.408;2022-12-18T23:25:33;36.70;;;29.13;;
59207;SDS011;44977;53.132;6.408;2022-12-18T23:30:34;35.40;;;29.00;;
59207;SDS011;44977;53.132;6.408;2022-12-18T23:35:34;36.38;;;30.00;;
59207;SDS011;44977;53.132;6.408;2022-12-18T23:40:35;33.95;;;28.25;;
59207;SDS011;44977;53.132;6.408;2022-12-18T23:45:36;35.10;;;28.40;;
59207;SDS011;44977;53.132;6.408;2022-12-18T23:50:38;34.85;;;28.60;;
59207;SDS011;44977;53.132;6.408;2022-12-18T23:55:39;37.55;;;30.10;;
